Time;durP1;ratioP1;P1;durP2;ratioP2;P2;SDS_P1;SDS_P2;PMS_P1;PMS_P2;Temp;Humidity;BMP_temperature;BMP_pressure;BME280_temperature;BME280_humidity;BME280_pressure;Samples;Min_cycle;Max_cycle;Signal;HPM_P1;HPM_P2
2023/10/10 00:02:18;;;;;;;1.95;0.35;;;;;;;10.94;62.81;101933.38;4914881;28;20031;-71
2023/10/10 00:04:47;;;;;;;1.65;0.10;;;;;;;11.00;62.44;101933.22;4914512;28;20114;-71
2023/10/10 00:07:17;;;;;;;3.13;0.10;;;;;;;10.98;62.44;101931.56;4912702;28;20031;-72
2023/10/10 00:09:44;;;;;;;3.80;0.28;;;;;;;10.97;62.31;101927.22;4931965;28;20462;-72
2023/10/10 00:12:18;;;;;;;1.88;0.47;;;;;;;10.95;62.35;101932.50;4903669;28;20566;-71
2023/10/10 00:14:50;;;;;;;4.57;0.38;;;;;;;11.00;62.54;101933.22;4916841;28;20541;-71
2023/10/10 00:17:16;;;;;;;4.35;0.50;;;;;;;11.03;62.63;101927.91;4917819;28;20441;-71
2023/10/10 00:19:44;;;;;;;4.50;0.20;;;;;;;11.04;62.71;101929.66;4933398;28;20044;-72
2023/10/10 00:22:12;;;;;;;2.13;0.20;;;;;;;11.12;62.73;101931.19;4930792;28;20040;-71
2023/10/10 00:24:39;;;;;;;1.15;0.10;;;;;;;11.13;62.51;101927.69;4915507;28;20122;-76
2023/10/10 00:27:14;;;;;;;1.10;0.20;;;;;;;11.10;62.24;101918.16;4921819;28;20235;-77
2023/10/10 00:29:43;;;;;;;2.65;0.90;;;;;;;11.16;62.66;101922.38;4922071;28;20039;-75
2023/10/10 00:32:22;;;;;;;1.63;0.25;;;;;;;11.20;62.49;101924.88;4919294;28;20030;-73
2023/10/10 00:34:49;;;;;;;3.35;0.20;;;;;;;11.13;62.87;101922.44;4920742;28;20050;-72
2023/10/10 00:37:17;;;;;;;4.78;0.30;;;;;;;11.15;62.86;101925.88;4916333;28;20039;-73
2023/10/10 00:39:52;;;;;;;1.77;0.32;;;;;;;11.26;62.52;101921.22;4925707;28;20115;-74
2023/10/10 00:42:36;;;;;;;1.13;0.20;;;;;;;11.26;62.47;101921.22;4920768;28;20042;-73
2023/10/10 00:45:04;;;;;;;3.35;0.28;;;;;;;11.28;62.59;101911.56;4931784;28;20150;-75
2023/10/10 00:47:38;;;;;;;5.32;0.90;;;;;;;11.25;62.10;101911.69;4936299;28;20478;-74
2023/10/10 00:50:08;;;;;;;2.13;0.30;;;;;;;11.15;62.36;101907.56;4921967;28;20045;-74
2023/10/10 00:52:36;;;;;;;1.73;0.20;;;;;;;11.06;62.37;101908.66;4935619;28;20402;-74
2023/10/10 00:55:04;;;;;;;0.80;0.10;;;;;;;11.09;62.23;101915.59;4919087;28;20411;-71
2023/10/10 00:57:35;;;;;;;1.73;0.20;;;;;;;11.04;62.13;101918.34;4920245;28;20241;-71
2023/10/10 01:00:10;;;;;;;0.93;0.15;;;;;;;11.03;62.25;101917.44;4920629;28;20051;-71
2023/10/10 01:02:37;;;;;;;2.15;0.20;;;;;;;11.08;62.27;101919.09;4920750;28;20047;-71
2023/10/10 01:05:13;;;;;;;3.42;0.68;;;;;;;11.13;62.37;101917.22;4931247;28;20044;-70
2023/10/10 01:07:40;;;;;;;0.50;0.10;;;;;;;11.17;62.41;101914.50;4905818;28;20276;-70
2023/10/10 01:10:12;;;;;;;6.80;0.35;;;;;;;11.23;62.34;101913.47;4909549;28;20058;-71
2023/10/10 01:12:39;;;;;;;1.02;0.10;;;;;;;11.26;62.44;101902.91;4925049;28;20061;-71
2023/10/10 01:15:26;;;;;;;3.67;0.15;;;;;;;11.24;62.19;101896.84;4901535;28;20051;-72
2023/10/10 01:17:54;;;;;;;3.95;0.20;;;;;;;11.28;62.25;101890.66;4921744;28;20036;-72
2023/10/10 01:20:34;;;;;;;1.77;0.10;;;;;;;11.31;62.39;101885.34;4918319;28;20201;-73
2023/10/10 01:23:03;;;;;;;1.10;0.30;;;;;;;11.35;61.98;101892.22;4919100;28;20522;-72
2023/10/10 01:28:46;;;;;;;2.72;0.10;;;;;;;11.44;62.05;101885.84;4917759;28;20533;-73
2023/10/10 01:33:22;;;;;;;1.48;0.32;;;;;;;11.48;62.04;101876.16;4905572;29;20439;-71
2023/10/10 01:35:55;;;;;;;1.77;0.50;;;;;;;11.43;62.25;101874.53;4932259;28;20047;-72
2023/10/10 01:38:27;;;;;;;3.13;0.28;;;;;;;11.45;62.12;101883.19;4916406;28;20039;-72
2023/10/10 01:40:54;;;;;;;;;;;;;;;11.47;62.38;101877.94;4920725;28;20120;-72
2023/10/10 01:43:20;;;;;;;3.22;0.63;;;;;;;11.52;61.98;101878.66;4920330;28;20435;-71
2023/10/10 01:46:00;;;;;;;3.85;0.40;;;;;;;11.51;62.30;101876.06;4919751;28;20044;-71
2023/10/10 01:48:32;;;;;;;2.17;0.30;;;;;;;11.63;62.04;101878.34;4915444;28;20162;-70
2023/10/10 01:50:58;;;;;;;1.73;0.25;;;;;;;11.59;62.31;101879.34;4916473;28;20051;-72
2023/10/10 01:53:23;;;;;;;1.20;0.45;;;;;;;11.56;61.99;101884.66;4934760;28;20062;-69
2023/10/10 01:55:50;;;;;;;1.58;0.43;;;;;;;11.43;62.37;101886.75;4919574;28;20131;-67
2023/10/10 01:58:19;;;;;;;3.50;0.30;;;;;;;11.63;61.94;101880.97;4913501;28;21919;-73
2023/10/10 02:00:46;;;;;;;1.38;0.30;;;;;;;11.65;62.12;101890.50;4922369;28;20043;-69
2023/10/10 02:03:14;;;;;;;3.80;0.60;;;;;;;11.60;62.22;101881.06;4920347;28;20511;-68
2023/10/10 02:05:45;;;;;;;3.80;0.70;;;;;;;11.66;62.13;101873.91;4908067;28;20078;-69
2023/10/10 02:08:16;;;;;;;3.30;0.40;;;;;;;11.65;62.15;101872.16;4916321;28;20655;-70
2023/10/10 02:10:46;;;;;;;2.78;0.30;;;;;;;11.71;62.22;101868.53;4917330;28;21720;-69
2023/10/10 02:13:12;;;;;;;2.20;0.30;;;;;;;11.76;62.12;101879.72;4916997;28;20036;-70
2023/10/10 02:15:39;;;;;;;2.40;0.40;;;;;;;11.81;62.04;101866.53;4915200;28;20496;-70
2023/10/10 02:18:23;;;;;;;2.75;0.20;;;;;;;11.83;61.92;101873.41;4915766;28;20050;-67
2023/10/10 02:23:31;;;;;;;1.70;0.40;;;;;;;11.83;62.04;101869.94;4916724;28;20028;-69
2023/10/10 02:26:14;;;;;;;3.53;0.50;;;;;;;11.85;61.94;101866.38;4918375;28;20086;-71
2023/10/10 02:28:49;;;;;;;3.25;0.20;;;;;;;11.86;62.10;101860.22;4924063;28;20035;-76
2023/10/10 02:31:27;;;;;;;6.15;0.60;;;;;;;11.88;62.07;101861.03;4916633;28;20054;-71
2023/10/10 02:34:02;;;;;;;3.05;0.85;;;;;;;11.84;62.55;101859.44;4921765;28;20057;-77
2023/10/10 02:36:30;;;;;;;4.38;0.57;;;;;;;11.88;62.34;101852.31;4909908;28;20098;-75
2023/10/10 02:39:27;;;;;;;3.22;0.45;;;;;;;11.87;62.42;101855.88;4933204;28;20027;-74
2023/10/10 02:41:48;;;;;;;2.13;0.45;;;;;;;11.92;62.46;101850.50;4921240;28;20447;-74
2023/10/10 02:44:26;;;;;;;5.80;1.08;;;;;;;11.96;62.29;101846.88;4906664;28;20043;-74
2023/10/10 02:46:54;;;;;;;6.80;0.70;;;;;;;11.91;62.46;101851.38;4917966;28;20043;-73
2023/10/10 02:49:23;;;;;;;1.58;0.30;;;;;;;11.98;62.56;101850.31;4919451;28;20125;-74
2023/10/10 02:51:51;;;;;;;4.82;0.73;;;;;;;12.00;62.28;101848.47;4917669;28;20036;-72
2023/10/10 02:56:58;;;;;;;4.97;0.60;;;;;;;12.04;62.41;101844.84;4918527;28;20031;-74
2023/10/10 03:00:15;;;;;;;3.00;0.40;;;;;;;12.07;62.27;101844.78;4906225;28;20208;-73
2023/10/10 03:02:40;;;;;;;4.03;0.77;;;;;;;12.04;62.36;101843.13;4918132;28;21861;-73
2023/10/10 03:05:14;;;;;;;4.93;1.15;;;;;;;12.05;62.49;101836.97;4930119;28;20453;-70
2023/10/10 03:07:42;;;;;;;1.80;0.50;;;;;;;12.09;62.46;101842.97;4914225;28;20038;-70
2023/10/10 03:12:41;;;;;;;;;;;;;;;12.14;62.54;101832.34;4931249;28;20035;-71
2023/10/10 03:17:51;;;;;;;2.50;0.77;;;;;;;12.12;62.62;101832.38;4913595;28;20989;-68
2023/10/10 03:20:38;;;;;;;9.00;1.30;;;;;;;12.08;62.80;101826.38;4923095;28;20047;-71
2023/10/10 03:25:54;;;;;;;1.80;1.00;;;;;;;12.13;62.50;101828.84;4931228;28;20067;-71
2023/10/10 03:33:38;;;;;;;3.10;0.95;;;;;;;11.96;62.52;101829.38;4932189;28;20034;-70
2023/10/10 05:25:50;;;;;;;15.07;7.47;;;;;;;11.93;63.66;101805.88;4934093;28;20039;-74
2023/10/10 05:28:18;;;;;;;14.48;7.25;;;;;;;11.98;63.55;101809.25;4916470;28;20039;-74
2023/10/10 05:30:45;;;;;;;13.80;6.03;;;;;;;12.02;63.40;101809.97;4921231;28;20052;-74
2023/10/10 05:33:12;;;;;;;10.82;7.05;;;;;;;11.99;63.47;101802.22;4916754;28;20103;-74
2023/10/10 05:35:49;;;;;;;11.45;6.72;;;;;;;11.64;64.68;101798.88;4918063;28;20052;-74
2023/10/10 05:38:15;;;;;;;10.00;7.05;;;;;;;11.91;63.75;101806.84;4930390;28;20046;-75
2023/10/10 05:40:43;;;;;;;12.65;5.93;;;;;;;11.86;63.85;101793.88;4920740;28;20695;-71
2023/10/10 05:43:15;;;;;;;9.25;5.70;;;;;;;11.82;64.22;101790.53;4921165;28;20400;-74
2023/10/10 05:45:45;;;;;;;12.63;6.90;;;;;;;11.67;64.45;101794.41;4932583;28;20054;-73
2023/10/10 05:48:12;;;;;;;11.43;6.72;;;;;;;11.96;63.57;101782.22;4916802;28;20090;-72
2023/10/10 05:50:40;;;;;;;13.05;6.65;;;;;;;11.87;63.74;101790.38;4887736;28;20051;-72
2023/10/10 05:53:07;;;;;;;8.80;5.43;;;;;;;11.92;63.73;101783.22;4932785;28;20032;-72
2023/10/10 05:55:34;;;;;;;12.77;5.70;;;;;;;11.61;64.72;101798.97;4918087;28;20039;-73
2023/10/10 05:58:03;;;;;;;12.07;6.03;;;;;;;11.93;64.07;101789.31;4932233;28;20035;-73
2023/10/10 06:00:32;;;;;;;8.88;5.90;;;;;;;12.01;63.49;101782.94;4915836;28;20120;-72
2023/10/10 06:02:58;;;;;;;7.70;4.85;;;;;;;12.09;63.27;101785.31;4933671;28;20043;-71
2023/10/10 06:05:23;;;;;;;10.40;5.40;;;;;;;12.15;63.29;101787.72;4915534;28;20087;-71
2023/10/10 06:07:49;;;;;;;14.00;4.97;;;;;;;12.15;63.29;101790.34;4920651;28;20075;-72
2023/10/10 06:10:16;;;;;;;10.40;5.68;;;;;;;12.17;63.03;101788.53;4920555;28;20218;-72
2023/10/10 06:12:53;;;;;;;10.05;5.10;;;;;;;12.16;63.22;101781.59;4938027;28;20039;-71
2023/10/10 06:15:19;;;;;;;9.65;4.32;;;;;;;12.25;63.01;101789.16;4929793;28;20533;-72
2023/10/10 06:17:48;;;;;;;8.38;5.47;;;;;;;12.25;62.82;101781.28;4925943;28;20031;-72
2023/10/10 06:20:16;;;;;;;6.95;5.10;;;;;;;12.18;63.34;101782.41;4921173;28;20051;-72
2023/10/10 06:22:45;;;;;;;10.48;4.97;;;;;;;12.22;63.23;101781.41;4921598;28;20585;-72
2023/10/10 06:25:11;;;;;;;9.77;5.28;;;;;;;12.16;63.23;101792.06;4917061;28;20113;-71
2023/10/10 06:27:40;;;;;;;6.93;4.43;;;;;;;12.16;62.87;101775.50;4933087;28;20046;-70
2023/10/10 06:30:17;;;;;;;9.60;4.40;;;;;;;12.16;62.98;101781.59;4931723;28;20044;-72
2023/10/10 06:32:43;;;;;;;12.20;4.63;;;;;;;12.21;62.86;101784.91;4917586;28;20087;-70
2023/10/10 06:37:45;;;;;;;8.10;4.43;;;;;;;12.27;62.67;101784.72;4921176;28;20538;-70
2023/10/10 06:40:11;;;;;;;5.80;4.13;;;;;;;12.27;62.67;101783.88;4917276;28;20055;-70
2023/10/10 06:42:38;;;;;;;10.20;4.82;;;;;;;12.34;62.67;101788.00;4923563;28;20067;-70
2023/10/10 06:45:10;;;;;;;7.40;4.95;;;;;;;12.37;62.77;101773.94;4930172;28;20220;-70
2023/10/10 06:47:39;;;;;;;7.13;3.78;;;;;;;12.25;62.77;101775.19;4916664;28;20047;-71
2023/10/10 06:50:11;;;;;;;8.45;3.85;;;;;;;12.35;62.60;101770.50;4914861;28;20040;-70
2023/10/10 06:52:39;;;;;;;7.28;4.93;;;;;;;12.35;62.59;101775.75;4918429;28;20023;-70
2023/10/10 06:55:10;;;;;;;6.85;4.22;;;;;;;12.34;62.68;101768.81;4914984;28;20080;-70
2023/10/10 06:57:38;;;;;;;12.85;4.07;;;;;;;12.22;62.84;101770.91;4913570;28;20150;-70
2023/10/10 07:00:19;;;;;;;7.78;4.25;;;;;;;12.23;62.88;101783.09;4915302;28;20048;-70
2023/10/10 07:02:49;;;;;;;5.40;3.60;;;;;;;12.19;62.81;101778.88;4919163;28;20123;-70
2023/10/10 07:05:15;;;;;;;9.73;6.57;;;;;;;12.10;63.01;101776.53;4930742;28;20043;-70
2023/10/10 07:07:41;;;;;;;9.05;4.82;;;;;;;12.26;62.96;101782.16;4916350;28;20047;-70
2023/10/10 07:10:09;;;;;;;6.80;4.05;;;;;;;12.23;62.91;101777.88;4930480;28;20067;-70
2023/10/10 07:12:35;;;;;;;7.43;4.25;;;;;;;12.27;62.98;101779.47;4915882;28;21602;-70
2023/10/10 07:15:06;;;;;;;5.82;3.70;;;;;;;12.31;62.99;101782.00;4914666;28;20438;-71
2023/10/10 07:17:32;;;;;;;8.65;3.65;;;;;;;12.40;63.53;101779.06;4918380;28;20578;-70
2023/10/10 07:22:36;;;;;;;7.28;4.47;;;;;;;12.90;62.50;101773.88;4914563;28;20398;-70
2023/10/10 07:25:31;;;;;;;6.38;4.93;;;;;;;13.23;61.63;101776.22;4912910;28;20495;-70
2023/10/10 07:28:00;;;;;;;11.13;4.22;;;;;;;13.59;61.62;101773.16;4916409;28;20054;-70
2023/10/10 07:30:33;;;;;;;5.57;3.97;;;;;;;13.83;60.89;101764.31;4912880;28;20139;-70
2023/10/10 07:33:02;;;;;;;7.53;4.28;;;;;;;13.99;58.74;101772.44;4926819;28;20067;-70
2023/10/10 07:35:36;;;;;;;10.38;4.05;;;;;;;13.92;59.36;101779.69;4915819;28;20193;-70
2023/10/10 07:38:01;;;;;;;5.95;3.55;;;;;;;13.20;61.43;101776.31;4913733;28;20047;-70
2023/10/10 07:40:37;;;;;;;6.28;2.95;;;;;;;14.92;59.70;101775.53;4911672;28;20058;-70
2023/10/10 07:43:03;;;;;;;6.30;3.78;;;;;;;16.46;55.22;101772.75;4917906;28;20553;-69
2023/10/10 07:45:34;;;;;;;7.68;3.60;;;;;;;16.71;52.68;101770.56;4912484;28;20490;-70
2023/10/10 07:51:05;;;;;;;4.80;3.03;;;;;;;15.92;55.48;101772.75;4908593;28;20044;-70
2023/10/10 07:53:41;;;;;;;3.55;2.25;;;;;;;16.86;52.55;101760.16;4911529;28;20358;-70
2023/10/10 07:56:06;;;;;;;5.65;2.67;;;;;;;18.60;49.96;101753.94;4913002;28;20450;-71
2023/10/10 07:59:06;;;;;;;3.20;2.55;;;;;;;19.90;43.47;101744.91;4912390;28;20598;-70
2023/10/10 08:01:24;;;;;;;4.72;2.38;;;;;;;20.10;44.00;101754.19;4892048;29;20566;-70
2023/10/10 08:03:49;;;;;;;3.42;1.60;;;;;;;20.66;43.03;101743.34;4911403;28;20046;-71
2023/10/10 08:06:18;;;;;;;5.18;2.15;;;;;;;19.74;43.48;101729.16;4914051;28;20035;-70
2023/10/10 08:08:49;;;;;;;4.15;1.73;;;;;;;18.77;45.15;101719.34;4927578;28;20043;-71
2023/10/10 08:11:25;;;;;;;6.93;1.75;;;;;;;18.08;47.71;101726.09;4914240;28;20031;-71
2023/10/10 08:13:51;;;;;;;2.97;2.15;;;;;;;17.75;48.31;101723.59;4930346;28;20044;-71
2023/10/10 08:16:29;;;;;;;8.90;2.85;;;;;;;17.24;49.53;101713.19;4913298;28;21481;-71
2023/10/10 08:18:55;;;;;;;4.50;2.72;;;;;;;16.69;50.47;101714.38;4904583;28;20028;-71
2023/10/10 08:21:24;;;;;;;6.78;2.75;;;;;;;16.80;51.21;101712.03;4910220;28;20070;-71
2023/10/10 08:23:56;;;;;;;7.22;2.90;;;;;;;16.56;51.21;101710.66;4930121;28;20035;-70
2023/10/10 08:26:27;;;;;;;5.22;3.15;;;;;;;16.16;52.39;101710.06;4913657;28;20421;-71
2023/10/10 08:28:53;;;;;;;5.88;2.95;;;;;;;16.35;52.27;101717.88;4901777;28;20051;-71
2023/10/10 08:31:22;;;;;;;8.80;3.78;;;;;;;16.34;52.01;101714.41;4913677;28;20896;-70
2023/10/10 08:33:48;;;;;;;3.75;3.05;;;;;;;16.42;52.50;101693.75;4905682;28;20036;-70
2023/10/10 08:36:23;;;;;;;4.15;3.53;;;;;;;17.01;51.52;101701.25;4919911;28;20057;-70
2023/10/10 08:38:53;;;;;;;6.82;4.22;;;;;;;16.70;51.35;101694.94;4917692;28;20042;-70
2023/10/10 08:41:25;;;;;;;6.55;3.45;;;;;;;16.98;50.83;101688.22;4930680;28;20061;-69
2023/10/10 08:44:01;;;;;;;10.57;3.80;;;;;;;17.43;50.46;101692.75;4917471;28;20127;-69
2023/10/10 08:46:32;;;;;;;6.05;4.00;;;;;;;17.29;50.46;101690.03;4915759;28;20110;-70
2023/10/10 08:49:04;;;;;;;14.18;4.88;;;;;;;17.57;49.66;101683.22;4923105;28;20035;-69
2023/10/10 08:51:33;;;;;;;5.83;3.37;;;;;;;17.17;50.79;101677.50;4918463;28;20488;-69
2023/10/10 08:54:10;;;;;;;5.90;5.22;;;;;;;16.70;50.72;101681.75;4920257;28;20110;-69
2023/10/10 08:56:38;;;;;;;8.35;5.28;;;;;;;16.52;51.84;101688.00;4919063;28;20338;-71
2023/10/10 08:59:11;;;;;;;6.40;4.38;;;;;;;16.60;51.63;101685.81;4916171;28;20047;-69
2023/10/10 09:01:42;;;;;;;9.18;5.05;;;;;;;16.06;52.71;101683.28;4919669;28;20038;-69
2023/10/10 09:04:12;;;;;;;8.07;5.13;;;;;;;16.20;53.34;101690.53;4933092;28;20517;-70
2023/10/10 09:07:01;;;;;;;7.82;5.20;;;;;;;16.26;52.59;101687.56;4932813;28;20099;-69
2023/10/10 09:09:33;;;;;;;9.05;6.53;;;;;;;16.29;52.62;101682.13;4916256;28;20526;-71
2023/10/10 09:12:02;;;;;;;12.50;6.13;;;;;;;16.21;53.02;101689.56;4922934;28;20036;-71
2023/10/10 09:14:39;;;;;;;7.40;5.68;;;;;;;16.25;52.84;101685.84;4932553;28;20047;-70
2023/10/10 09:17:07;;;;;;;10.30;7.22;;;;;;;16.21;52.82;101692.22;4918142;28;20075;-71
2023/10/10 09:19:46;;;;;;;12.45;7.32;;;;;;;15.68;54.70;101690.44;4917088;28;20510;-71
2023/10/10 09:22:28;;;;;;;11.68;6.72;;;;;;;15.97;54.21;101699.53;4933849;28;20031;-71
2023/10/10 09:24:55;;;;;;;13.48;8.25;;;;;;;16.07;54.27;101694.72;4926164;28;20088;-71
2023/10/10 09:27:28;;;;;;;12.43;7.35;;;;;;;15.93;54.88;101688.31;4916009;28;20024;-69
2023/10/10 09:29:56;;;;;;;13.60;7.25;;;;;;;15.31;55.57;101686.94;4921819;28;20078;-70
2023/10/10 09:32:36;;;;;;;12.27;6.63;;;;;;;16.35;54.46;101691.50;4935743;28;20083;-70
2023/10/10 09:35:06;;;;;;;14.73;6.35;;;;;;;16.50;52.98;101689.88;4922479;28;20055;-69
2023/10/10 09:37:38;;;;;;;8.65;5.63;;;;;;;16.92;52.06;101685.91;4915663;28;20122;-71
2023/10/10 09:40:15;;;;;;;11.00;6.07;;;;;;;17.06;51.82;101680.72;4921155;28;20047;-71
2023/10/10 09:43:03;;;;;;;8.25;6.07;;;;;;;16.42;52.37;101683.22;4915865;28;20106;-71
2023/10/10 09:54:17;;;;;;;8.93;6.32;;;;;;;16.25;53.27;101690.28;4917749;28;20054;-71
2023/10/10 09:56:48;;;;;;;9.13;6.55;;;;;;;16.54;52.89;101680.84;4915419;28;20035;-70
2023/10/10 09:59:16;;;;;;;10.13;5.93;;;;;;;16.46;52.68;101675.97;4908433;28;20051;-70
2023/10/10 10:01:45;;;;;;;7.72;5.25;;;;;;;16.34;53.60;101674.81;4915506;28;20127;-70
2023/10/10 10:04:18;;;;;;;12.32;7.00;;;;;;;16.47;53.42;101677.69;4913458;28;20039;-70
2023/10/10 10:06:52;;;;;;;11.13;6.00;;;;;;;16.25;53.91;101670.03;4917327;28;20366;-69
2023/10/10 10:09:40;;;;;;;16.15;7.25;;;;;;;16.51;52.94;101666.03;4914656;28;20446;-70
2023/10/10 10:12:59;;;;;;;14.15;6.88;;;;;;;16.09;54.17;101672.59;4916368;28;20109;-69
2023/10/10 10:15:58;;;;;;;12.02;7.20;;;;;;;15.81;54.65;101670.47;4914503;28;20051;-69
2023/10/10 10:18:27;;;;;;;10.18;6.40;;;;;;;15.67;54.96;101668.50;4914812;28;20115;-70
2023/10/10 10:23:47;;;;;;;10.15;7.05;;;;;;;15.90;54.45;101664.72;4930268;28;20078;-76
2023/10/10 10:26:31;;;;;;;13.40;6.78;;;;;;;15.96;55.01;101669.69;4915832;28;20510;-69
2023/10/10 10:28:57;;;;;;;17.67;8.30;;;;;;;16.28;53.95;101664.59;4914952;28;20043;-69
2023/10/10 10:31:32;;;;;;;11.63;8.10;;;;;;;16.10;54.10;101670.81;4929539;28;20047;-68
2023/10/10 10:34:05;;;;;;;11.68;6.93;;;;;;;16.22;53.98;101654.38;4899791;28;20126;-67
2023/10/10 10:36:50;;;;;;;16.25;8.77;;;;;;;16.51;53.69;101649.34;4912100;28;20073;-67
2023/10/10 10:39:23;;;;;;;11.15;7.35;;;;;;;16.72;53.01;101644.72;4914933;28;20753;-69
2023/10/10 10:41:55;;;;;;;10.85;7.20;;;;;;;16.66;53.18;101643.25;4914400;28;20054;-70
2023/10/10 10:47:35;;;;;;;14.30;9.27;;;;;;;16.93;53.00;101645.34;4914695;28;20507;-69
2023/10/10 10:50:05;;;;;;;12.70;9.10;;;;;;;16.56;53.76;101636.78;4932890;28;20705;-69
2023/10/10 10:52:44;;;;;;;16.15;9.05;;;;;;;17.00;53.03;101637.03;4907656;28;20622;-70
2023/10/10 10:55:25;;;;;;;14.05;9.60;;;;;;;16.58;53.94;101641.03;4930750;28;20062;-70
2023/10/10 11:00:57;;;;;;;18.40;9.70;;;;;;;17.07;52.53;101641.94;4910050;28;20063;-70
2023/10/10 11:03:38;;;;;;;17.88;11.05;;;;;;;17.10;53.20;101634.72;4919306;28;20040;-70
2023/10/10 11:06:06;;;;;;;20.15;12.38;;;;;;;16.93;52.63;101632.16;4912768;28;20044;-70
2023/10/10 11:14:03;;;;;;;20.70;11.25;;;;;;;16.59;53.54;101621.59;4917370;28;20134;-69
2023/10/10 11:16:39;;;;;;;;;;;;;;;17.22;52.82;101620.84;4911300;28;20040;-70
2023/10/10 11:21:50;;;;;;;17.52;11.73;;;;;;;17.86;51.03;101626.00;4913501;28;20422;-70
2023/10/10 11:24:23;;;;;;;20.45;11.80;;;;;;;17.88;51.82;101628.56;4913229;28;20077;-70
2023/10/10 11:29:47;;;;;;;21.52;14.48;;;;;;;18.26;49.98;101619.19;4911298;28;20349;-70
2023/10/10 11:32:25;;;;;;;23.52;14.43;;;;;;;18.68;49.50;101629.88;4929940;28;20043;-71
2023/10/10 11:34:56;;;;;;;30.20;15.40;;;;;;;17.45;51.60;101626.59;4913497;28;20055;-70
2023/10/10 11:37:31;;;;;;;27.42;16.92;;;;;;;17.11;52.70;101617.06;4928313;28;20027;-70
2023/10/10 11:42:57;;;;;;;31.65;17.00;;;;;;;17.55;51.80;101624.31;4912072;28;20075;-70
2023/10/10 11:45:27;;;;;;;32.25;17.83;;;;;;;17.72;51.92;101625.97;4930915;28;20510;-70
2023/10/10 11:48:00;;;;;;;31.17;18.65;;;;;;;17.45;51.76;101624.81;4911800;28;21942;-70
2023/10/10 11:50:46;;;;;;;31.92;18.45;;;;;;;16.96;53.00;101629.38;4915857;28;20213;-71
2023/10/10 11:53:14;;;;;;;28.92;16.15;;;;;;;17.45;51.78;101631.88;4916622;28;20486;-70
2023/10/10 11:55:41;;;;;;;33.22;19.38;;;;;;;16.64;53.46;101618.72;4907658;28;20044;-70
2023/10/10 11:58:07;;;;;;;35.83;19.05;;;;;;;16.79;52.93;101623.19;4913669;28;20076;-70
2023/10/10 12:00:42;;;;;;;32.95;18.55;;;;;;;17.19;52.88;101613.06;4901435;28;20044;-70
2023/10/10 12:03:31;;;;;;;36.45;19.83;;;;;;;17.11;52.52;101610.00;4918047;28;20322;-70
2023/10/10 12:05:59;;;;;;;30.10;18.83;;;;;;;17.15;52.88;101593.03;4911353;28;20419;-70
2023/10/10 12:08:24;;;;;;;32.40;18.08;;;;;;;17.61;52.21;101585.16;4914189;28;20538;-70
2023/10/10 12:11:04;;;;;;;33.33;19.13;;;;;;;17.32;53.15;101585.97;4912243;28;20047;-69
2023/10/10 12:15:58;;;;;;;38.05;19.10;;;;;;;17.05;53.19;101588.41;4928996;28;20039;-69
2023/10/10 12:18:30;;;;;;;33.63;18.30;;;;;;;17.33;53.14;101585.84;4921850;28;20043;-70
2023/10/10 12:21:01;;;;;;;33.17;19.45;;;;;;;17.49;52.73;101591.13;4916098;28;21908;-69
2023/10/10 12:23:27;;;;;;;38.70;20.90;;;;;;;17.60;52.06;101583.47;4914442;28;20465;-69
2023/10/10 12:25:54;;;;;;;36.42;19.52;;;;;;;17.74;51.83;101568.56;4912194;28;20125;-69
2023/10/10 12:28:20;;;;;;;35.58;19.98;;;;;;;17.70;51.63;101575.84;4934465;28;20039;-69
2023/10/10 12:30:46;;;;;;;32.58;19.05;;;;;;;17.65;51.78;101581.38;4915919;28;20039;-68
2023/10/10 12:33:15;;;;;;;29.73;19.17;;;;;;;17.77;51.37;101581.59;4919722;28;20035;-69
2023/10/10 12:35:47;;;;;;;30.45;17.73;;;;;;;18.20;50.86;101581.69;4916922;28;20062;-69
2023/10/10 12:38:15;;;;;;;31.08;19.15;;;;;;;17.93;50.92;101565.66;4922917;28;20035;-69
2023/10/10 12:40:46;;;;;;;34.92;19.70;;;;;;;17.84;50.61;101575.00;4920521;28;20070;-69
2023/10/10 12:43:12;;;;;;;35.22;20.52;;;;;;;17.34;52.04;101570.88;4926759;28;20047;-69
2023/10/10 12:45:37;;;;;;;40.28;19.92;;;;;;;17.18;52.28;101566.47;4916003;28;20043;-69
2023/10/10 12:48:13;;;;;;;36.10;18.13;;;;;;;17.63;51.45;101572.69;4923602;28;20030;-71
2023/10/10 12:50:42;;;;;;;40.08;20.27;;;;;;;17.85;50.90;101552.94;4928288;28;20040;-69
2023/10/10 12:53:07;;;;;;;36.75;19.08;;;;;;;17.64;51.04;101547.94;4919540;28;20055;-71
2023/10/10 12:55:48;;;;;;;35.30;20.33;;;;;;;17.37;51.97;101541.63;4927115;28;20127;-68
2023/10/10 12:58:16;;;;;;;36.13;22.20;;;;;;;17.55;51.02;101537.94;4922835;28;20639;-71
2023/10/10 13:00:49;;;;;;;43.05;20.98;;;;;;;17.48;52.00;101556.91;4916319;28;20071;-69
2023/10/10 13:03:28;;;;;;;38.40;19.00;;;;;;;17.05;51.83;101538.22;4922631;28;20031;-69
2023/10/10 13:06:02;;;;;;;38.90;20.38;;;;;;;16.86;53.22;101528.69;4916730;28;20093;-69
2023/10/10 13:08:48;;;;;;;39.88;21.63;;;;;;;16.66;53.63;101526.28;4934967;28;20031;-71
2023/10/10 13:11:15;;;;;;;40.58;19.85;;;;;;;16.73;53.55;101525.88;4919963;28;20037;-71
2023/10/10 13:13:48;;;;;;;42.17;19.98;;;;;;;16.78;53.37;101521.19;4916967;28;20122;-71
2023/10/10 13:18:59;;;;;;;44.38;20.77;;;;;;;17.18;52.58;101513.66;4923115;28;20050;-71
2023/10/10 13:21:26;;;;;;;36.83;20.60;;;;;;;16.97;53.12;101497.22;4920440;28;20023;-70
2023/10/10 13:23:53;;;;;;;38.88;21.35;;;;;;;17.20;52.91;101488.00;4918472;28;20107;-70
2023/10/10 13:26:22;;;;;;;41.97;20.80;;;;;;;16.50;54.54;101487.53;4924674;28;20562;-69
2023/10/10 13:28:48;;;;;;;39.88;21.35;;;;;;;16.23;55.14;101484.63;4916059;28;20591;-71
2023/10/10 13:31:16;;;;;;;45.38;22.08;;;;;;;16.41;54.66;101477.50;4919385;28;20024;-70
2023/10/10 13:33:43;;;;;;;43.38;22.02;;;;;;;16.50;54.76;101463.78;4918335;28;20078;-70
2023/10/10 13:36:15;;;;;;;38.63;21.08;;;;;;;16.65;53.97;101459.44;4918118;28;20287;-71
2023/10/10 13:38:48;;;;;;;46.25;21.63;;;;;;;16.54;54.93;101464.47;4918723;28;20087;-70
2023/10/10 13:41:28;;;;;;;40.00;20.23;;;;;;;16.61;54.51;101461.41;4933577;28;20052;-70
2023/10/10 13:43:59;;;;;;;33.47;20.67;;;;;;;16.85;53.51;101457.50;4916091;28;20047;-69
2023/10/10 13:46:27;;;;;;;36.78;20.27;;;;;;;16.90;53.85;101445.72;4935238;28;20054;-69
2023/10/10 13:48:53;;;;;;;37.50;20.58;;;;;;;16.97;53.83;101451.50;4929243;28;20135;-69
2023/10/10 13:51:19;;;;;;;47.08;22.45;;;;;;;16.46;54.92;101433.22;4916481;28;20065;-69
2023/10/10 13:53:45;;;;;;;42.17;21.40;;;;;;;16.80;54.07;101445.41;4911628;28;20334;-69
2023/10/10 13:56:13;;;;;;;42.92;21.70;;;;;;;16.81;54.47;101443.63;4919026;28;20035;-69
2023/10/10 13:58:46;;;;;;;36.72;21.02;;;;;;;16.05;56.87;101440.81;4917478;28;20043;-69
2023/10/10 14:01:18;;;;;;;39.67;20.52;;;;;;;16.13;56.39;101441.22;4914966;28;20043;-70
2023/10/10 14:03:45;;;;;;;36.47;20.55;;;;;;;16.65;55.05;101430.41;4917568;28;20558;-69
2023/10/10 14:06:13;;;;;;;36.90;20.70;;;;;;;16.62;55.08;101415.63;4917061;28;20402;-70
2023/10/10 14:08:44;;;;;;;40.97;21.88;;;;;;;16.69;55.00;101421.38;4930880;28;20031;-68
2023/10/10 14:11:10;;;;;;;42.17;21.87;;;;;;;16.72;55.22;101434.41;4904745;28;20400;-70
2023/10/10 14:13:36;;;;;;;32.65;21.42;;;;;;;16.19;56.25;101440.91;4917058;28;20036;-69
2023/10/10 14:16:02;;;;;;;34.35;20.35;;;;;;;16.49;56.05;101434.84;4913505;28;20987;-69
2023/10/10 14:18:41;;;;;;;36.55;21.58;;;;;;;16.62;55.48;101435.84;4931464;28;20558;-68
2023/10/10 14:21:11;;;;;;;43.80;22.60;;;;;;;16.46;56.11;101422.69;4905026;28;20055;-68
2023/10/10 14:23:39;;;;;;;44.78;22.73;;;;;;;16.25;56.80;101422.09;4918329;28;20035;-67
2023/10/10 14:26:18;;;;;;;45.25;22.38;;;;;;;16.30;56.86;101427.97;4911841;28;20051;-70
2023/10/10 14:28:50;;;;;;;42.03;21.90;;;;;;;16.19;57.50;101431.19;4913575;28;20027;-70
2023/10/10 14:31:42;;;;;;;42.47;22.20;;;;;;;16.36;57.17;101430.28;4932044;28;20071;-70
2023/10/10 14:34:12;;;;;;;47.63;23.05;;;;;;;16.33;56.86;101432.22;4920536;28;20044;-70
2023/10/10 14:36:39;;;;;;;41.20;22.40;;;;;;;16.36;56.90;101419.72;4903844;28;20394;-70
2023/10/10 14:41:51;;;;;;;40.15;20.92;;;;;;;16.74;56.03;101434.31;4912560;28;20062;-67